Huvudsida
METAR-TAF:

METAR-TAF

Flygplatser :

Singapore, Singapore

latitud: 01-22N, longitud: 103-55E, höjd: 18 m

Aktuellt väderrapport

Denna rapport gjordes för 31 minuter sedan, klockan 13:00 UTC
Vind 2 kt från syd
Temperatur 29°C
Fuktighet 84%
Tryck 1009 hPa
Sikt 10 km eller mer
Spridda moln på en höjd av 1800 ft
Brutna moln på en höjd av 30000 ft

METAR: WSAP 271300Z 17002KT 9999 SCT018 BKN300 29/26 Q1009

Tid: 21:31 (13:31 UTC)

Väderprognos

Denna rapport gjordes för 2 timmar och 31 minuter sedan, klockan 11:00 UTC
Prognos gäller från 27 kl. 12 UTC till 28 kl. 18 UTC
Vind 7 kt från väst/sydväst
Sikt 10 km eller mer
Få moln på en höjd av 1800 ft, Cumulonimbus.
Spridda moln på en höjd av 2000 ft
Temporärt
från 28 kl. 02 UTC till 28 kl. 06 UTC
Sikt: 3000 m
Få moln på en höjd av 1200 ft, Cumulonimbus.
Brutna moln på en höjd av 1500 ft
åska, regn

TAF: WSAP 271100Z 2712/2818 25007KT 9999 FEW018CB SCT020 TEMPO 2802/2806 3000 TSRA FEW012CB BKN015

Aktuella väderrapporter och prognoser från 4000 flygplatser (METAR- och TAF-rapporter).

De tillgängliga stationerna syns som gula och röda prickar på kartan.

För musen över prickarna för att se namnen på stationerna.

Klicka sedan för att få väderrapporter och prognoser.

För att ändra kartan: Klicka på de gröna knapparna med ett svart kors på för att zooma in; den gröna knappen med ett streck på för att zooma ut; eller på de gröna pilarna för angränsande kartor.


METAR-TAF: